Time;durP1;ratioP1;P1;durP2;ratioP2;P2;SDS_P1;SDS_P2;PMS_P1;PMS_P2;Temp;Humidity;BMP_temperature;BMP_pressure;BME280_temperature;BME280_humidity;BME280_pressure;Samples;Min_cycle;Max_cycle;Signal;HPM_P1;HPM_P2
2021/04/08 00:01:20;;;;;;;6.60;3.70;;;4.20;99.90;;;;;;5075749;28;20292;-77
2021/04/08 00:03:46;;;;;;;8.37;3.90;;;4.20;99.90;;;;;;5075980;28;20297;-77
2021/04/08 00:06:14;;;;;;;7.23;4.30;;;4.20;99.90;;;;;;5075626;28;20752;-77
2021/04/08 00:08:40;;;;;;;7.80;3.90;;;4.20;99.90;;;;;;5075573;28;20223;-77
2021/04/08 00:11:07;;;;;;;5.60;3.57;;;4.20;99.90;;;;;;5075241;28;20202;-77
2021/04/08 00:13:34;;;;;;;6.73;3.50;;;4.20;99.90;;;;;;5067849;28;20200;-77
2021/04/08 00:16:00;;;;;;;12.10;3.90;;;4.20;99.90;;;;;;5055621;28;20209;-77
2021/04/08 00:18:26;;;;;;;9.83;3.90;;;4.30;99.90;;;;;;5055747;28;20606;-77
2021/04/08 00:20:53;;;;;;;7.73;3.40;;;4.20;99.90;;;;;;5070212;28;20709;-77
2021/04/08 00:23:20;;;;;;;6.57;3.47;;;4.20;99.90;;;;;;5075417;28;20191;-77
2021/04/08 00:25:46;;;;;;;6.70;3.87;;;4.20;99.90;;;;;;5075338;28;20196;-77
2021/04/08 00:28:15;;;;;;;8.70;3.50;;;4.20;99.90;;;;;;5075768;28;20668;-77
2021/04/08 00:30:45;;;;;;;10.60;3.87;;;4.10;99.90;;;;;;5074942;28;20220;-77
2021/04/08 00:33:12;;;;;;;11.83;4.03;;;4.00;99.90;;;;;;5075558;28;20199;-77
2021/04/08 00:35:39;;;;;;;11.60;3.67;;;4.10;99.90;;;;;;5074276;28;20231;-77
2021/04/08 00:38:05;;;;;;;10.63;3.83;;;4.10;99.90;;;;;;5067181;28;20200;-77
2021/04/08 00:40:33;;;;;;;9.37;3.70;;;4.10;99.90;;;;;;5055211;28;20250;-77
2021/04/08 00:42:59;;;;;;;8.10;3.60;;;4.20;99.90;;;;;;5055336;28;20637;-77
2021/04/08 00:45:26;;;;;;;8.53;3.37;;;4.10;99.90;;;;;;5055012;28;20689;-77
2021/04/08 00:47:52;;;;;;;6.10;3.23;;;4.10;99.90;;;;;;5054932;28;20198;-78
2021/04/08 00:50:19;;;;;;;8.70;3.10;;;4.10;99.90;;;;;;5054608;28;20588;-77
2021/04/08 00:52:51;;;;;;;7.40;3.50;;;4.20;99.90;;;;;;5057351;28;20210;-78
2021/04/08 00:55:19;;;;;;;6.20;3.53;;;4.10;99.90;;;;;;5054939;28;20212;-78
2021/04/08 00:57:46;;;;;;;8.07;3.07;;;4.20;99.90;;;;;;5055012;28;20240;-78
2021/04/08 01:00:14;;;;;;;7.30;3.17;;;4.20;99.90;;;;;;5054813;28;20202;-77
2021/04/08 01:02:40;;;;;;;8.07;2.80;;;4.20;99.90;;;;;;5054660;28;20565;-77
2021/04/08 01:05:08;;;;;;;8.43;2.70;;;4.10;99.90;;;;;;5054640;28;20200;-78
2021/04/08 01:07:37;;;;;;;7.70;3.50;;;4.20;99.90;;;;;;5054665;28;20317;-78
2021/04/08 01:10:04;;;;;;;9.60;3.43;;;4.30;99.90;;;;;;5054322;28;20560;-77
2021/04/08 01:12:31;;;;;;;10.50;3.20;;;4.30;99.90;;;;;;5070340;28;20193;-78
2021/04/08 01:14:59;;;;;;;8.13;2.77;;;4.30;99.90;;;;;;5054845;28;20200;-77
2021/04/08 01:17:30;;;;;;;13.53;3.80;;;4.20;99.90;;;;;;5054665;28;20198;-77
2021/04/08 01:20:21;;;;;;;10.07;3.13;;;4.20;99.90;;;;;;5062053;28;20193;-78
2021/04/08 01:23:20;;;;;;;8.73;3.47;;;4.20;99.90;;;;;;5057967;28;20251;-77
2021/04/08 01:26:22;;;;;;;8.50;3.20;;;4.30;99.90;;;;;;5054243;28;20209;-78
2021/04/08 01:28:56;;;;;;;8.13;2.83;;;4.30;99.90;;;;;;4973569;28;20243;-77
2021/04/08 01:31:24;;;;;;;9.10;2.97;;;4.20;99.90;;;;;;5047530;28;20214;-78
2021/04/08 01:33:53;;;;;;;8.20;2.80;;;4.20;99.90;;;;;;5054324;28;20197;-77
2021/04/08 01:36:21;;;;;;;9.00;2.77;;;4.20;99.90;;;;;;5053942;28;20203;-77
2021/04/08 01:38:52;;;;;;;7.83;2.90;;;4.20;99.90;;;;;;5055251;28;20193;-78
2021/04/08 01:41:22;;;;;;;10.60;3.03;;;4.30;99.90;;;;;;5074238;28;20217;-78
2021/04/08 01:43:50;;;;;;;6.00;2.70;;;4.30;99.90;;;;;;5074322;28;20284;-78
2021/04/08 01:46:20;;;;;;;5.83;2.87;;;4.20;99.90;;;;;;5073769;28;20204;-77
2021/04/08 01:48:50;;;;;;;5.63;2.50;;;4.20;99.90;;;;;;5073679;28;20311;-77
2021/04/08 01:51:17;;;;;;;7.10;2.93;;;4.20;99.90;;;;;;5072887;28;20222;-77
2021/04/08 01:53:47;;;;;;;7.47;3.20;;;4.30;99.90;;;;;;5074029;28;20204;-77
2021/04/08 01:56:16;;;;;;;8.83;2.97;;;4.30;99.90;;;;;;5073614;28;20201;-78
2021/04/08 01:58:43;;;;;;;9.40;3.13;;;4.40;99.90;;;;;;5073991;28;20235;-78
2021/04/08 02:01:11;;;;;;;8.00;2.63;;;4.30;99.90;;;;;;5073048;28;20662;-78
2021/04/08 02:03:38;;;;;;;4.37;2.67;;;4.40;99.90;;;;;;5060851;28;20205;-77
2021/04/08 02:06:09;;;;;;;9.13;2.90;;;4.40;99.90;;;;;;5053388;28;20243;-78
2021/04/08 02:08:37;;;;;;;10.37;2.90;;;4.40;99.90;;;;;;5053556;28;20209;-78
2021/04/08 02:11:04;;;;;;;8.23;2.50;;;4.40;99.90;;;;;;5053257;28;20543;-77
2021/04/08 02:13:31;;;;;;;8.53;2.73;;;4.40;99.90;;;;;;5053498;28;20206;-78
2021/04/08 02:15:59;;;;;;;7.23;2.97;;;4.40;99.90;;;;;;5053041;28;20206;-77
2021/04/08 02:18:26;;;;;;;9.33;2.90;;;4.40;99.90;;;;;;5053525;28;20658;-77
2021/04/08 02:20:54;;;;;;;9.70;2.87;;;4.40;99.90;;;;;;5059021;28;20197;-78
2021/04/08 02:23:24;;;;;;;9.07;2.87;;;4.40;99.90;;;;;;5073239;28;20205;-77
2021/04/08 02:25:52;;;;;;;8.43;2.47;;;4.30;99.90;;;;;;5073354;28;20204;-78
2021/04/08 02:28:20;;;;;;;8.80;2.63;;;4.30;99.90;;;;;;5073274;28;20214;-77
2021/04/08 02:30:49;;;;;;;14.73;3.30;;;4.30;99.90;;;;;;5072935;28;20224;-78
2021/04/08 02:33:19;;;;;;;4.50;2.60;;;4.30;99.90;;;;;;5065371;28;20297;-77
2021/04/08 02:35:46;;;;;;;7.17;2.80;;;4.30;99.90;;;;;;5053182;28;20218;-77
2021/04/08 02:38:13;;;;;;;8.10;2.93;;;4.30;99.90;;;;;;5058115;28;20189;-78
2021/04/08 02:40:40;;;;;;;11.77;2.67;;;4.40;99.90;;;;;;5072623;28;20205;-77
2021/04/08 02:43:08;;;;;;;8.63;2.87;;;4.30;99.90;;;;;;5072822;28;20209;-77
2021/04/08 02:45:34;;;;;;;7.83;3.17;;;4.20;99.90;;;;;;5070889;28;20192;-77
2021/04/08 02:48:01;;;;;;;4.23;2.23;;;4.20;99.90;;;;;;5053094;28;20296;-77
2021/04/08 02:50:27;;;;;;;5.13;2.50;;;4.20;99.90;;;;;;5064177;28;20704;-77
2021/04/08 02:53:01;;;;;;;5.17;2.73;;;4.20;99.90;;;;;;5065794;28;20198;-78
2021/04/08 02:55:34;;;;;;;7.50;2.30;;;4.20;99.90;;;;;;5052774;28;20204;-77
2021/04/08 02:58:03;;;;;;;6.67;3.13;;;4.20;99.90;;;;;;5053082;28;20296;-77
2021/04/08 03:00:31;;;;;;;8.73;2.70;;;4.10;99.90;;;;;;5052718;28;20205;-78
2021/04/08 03:03:03;;;;;;;9.23;3.27;;;4.20;99.90;;;;;;5052449;28;20203;-78
2021/04/08 03:05:31;;;;;;;8.50;2.90;;;4.20;99.90;;;;;;5055899;28;20343;-78
2021/04/08 03:08:03;;;;;;;8.53;2.80;;;4.20;99.90;;;;;;5072802;28;20196;-78
2021/04/08 03:10:30;;;;;;;5.77;2.80;;;4.10;99.90;;;;;;5072326;28;20705;-78
2021/04/08 03:13:02;;;;;;;12.27;3.30;;;4.10;99.90;;;;;;5072943;28;20193;-77
2021/04/08 03:15:30;;;;;;;6.67;2.67;;;4.10;99.90;;;;;;5072746;28;20237;-78
2021/04/08 03:17:59;;;;;;;14.73;3.37;;;4.20;99.90;;;;;;5058140;28;20205;-77
2021/04/08 03:20:26;;;;;;;8.73;2.97;;;4.20;99.90;;;;;;5070340;28;20212;-77
2021/04/08 03:22:54;;;;;;;13.27;4.00;;;4.10;99.90;;;;;;5072636;28;20202;-77
2021/04/08 03:25:22;;;;;;;8.20;3.47;;;4.10;99.90;;;;;;5072604;28;20291;-77
2021/04/08 03:27:50;;;;;;;12.13;3.57;;;4.20;99.90;;;;;;5063710;28;20232;-77
2021/04/08 03:30:18;;;;;;;7.60;3.47;;;4.20;99.90;;;;;;5052545;28;20226;-77
2021/04/08 03:32:46;;;;;;;9.10;3.13;;;4.30;99.90;;;;;;5052474;28;20204;-77
2021/04/08 03:35:13;;;;;;;7.20;3.27;;;4.20;99.90;;;;;;5055738;28;20199;-77
2021/04/08 03:37:41;;;;;;;8.87;4.00;;;4.20;99.90;;;;;;5072484;28;20665;-77
2021/04/08 03:40:10;;;;;;;7.63;3.30;;;4.30;99.90;;;;;;5072204;28;20662;-77
2021/04/08 03:42:38;;;;;;;8.97;3.40;;;4.30;99.90;;;;;;5072493;28;20233;-77
2021/04/08 03:45:05;;;;;;;11.30;3.57;;;4.40;99.90;;;;;;5072393;28;20200;-77
2021/04/08 03:47:32;;;;;;;6.47;3.23;;;4.30;99.90;;;;;;5072530;28;20560;-77
2021/04/08 03:50:01;;;;;;;8.30;3.57;;;4.30;99.90;;;;;;5072358;28;20234;-77
2021/04/08 03:52:30;;;;;;;11.60;3.63;;;4.40;99.90;;;;;;5069280;28;20195;-77
2021/04/08 03:54:57;;;;;;;10.90;4.00;;;4.40;99.90;;;;;;5052408;28;20202;-77
2021/04/08 03:57:25;;;;;;;10.97;3.70;;;4.40;99.90;;;;;;5052654;28;20347;-77
2021/04/08 03:59:52;;;;;;;12.73;4.00;;;4.30;99.90;;;;;;5052195;28;20209;-77
2021/04/08 04:02:21;;;;;;;9.20;4.00;;;4.20;99.90;;;;;;5052737;28;20193;-78
2021/04/08 04:04:49;;;;;;;8.77;3.87;;;4.30;99.90;;;;;;5052160;28;20203;-78
2021/04/08 04:07:16;;;;;;;10.20;4.20;;;4.20;99.90;;;;;;5052165;28;20660;-77
2021/04/08 04:09:42;;;;;;;10.67;3.87;;;4.20;99.90;;;;;;5052116;28;20215;-78
2021/04/08 04:12:13;;;;;;;9.60;3.70;;;4.10;99.90;;;;;;5052070;28;20659;-78
2021/04/08 04:14:41;;;;;;;12.83;4.43;;;4.10;99.90;;;;;;5054513;28;20294;-78
2021/04/08 04:17:27;;;;;;;10.13;3.90;;;4.10;99.90;;;;;;5056019;28;20205;-78
2021/04/08 04:19:55;;;;;;;8.33;3.57;;;4.10;99.90;;;;;;5055788;28;20293;-79
2021/04/08 04:22:22;;;;;;;9.03;4.00;;;4.00;99.90;;;;;;5055566;28;20202;-78
2021/04/08 04:24:48;;;;;;;11.73;3.73;;;3.90;99.90;;;;;;5055421;28;20296;-77
2021/04/08 04:27:15;;;;;;;10.10;3.80;;;3.90;99.90;;;;;;5055426;28;20203;-77
2021/04/08 04:29:41;;;;;;;9.87;4.20;;;3.80;99.90;;;;;;5055339;28;20241;-77
2021/04/08 04:32:09;;;;;;;9.20;4.23;;;3.80;99.90;;;;;;5062766;28;20200;-78
2021/04/08 04:34:36;;;;;;;11.93;4.10;;;3.70;99.90;;;;;;5075254;28;20202;-78
2021/04/08 04:37:03;;;;;;;8.53;4.07;;;3.70;99.90;;;;;;5072432;28;20190;-78
2021/04/08 04:39:30;;;;;;;10.70;4.20;;;3.70;99.90;;;;;;5075223;28;20287;-77
2021/04/08 04:41:57;;;;;;;11.40;4.37;;;3.60;99.90;;;;;;5059243;28;20197;-77
2021/04/08 04:44:24;;;;;;;9.27;4.53;;;3.50;99.90;;;;;;5055189;28;20194;-77
2021/04/08 04:46:50;;;;;;;13.03;4.67;;;3.50;99.90;;;;;;5055257;28;20197;-77
2021/04/08 04:49:17;;;;;;;10.47;5.13;;;3.40;99.90;;;;;;5057892;28;20233;-78
2021/04/08 04:51:43;;;;;;;14.73;5.03;;;3.50;99.90;;;;;;5067370;28;20234;-77
2021/04/08 04:54:10;;;;;;;11.93;4.93;;;3.40;99.90;;;;;;5074923;28;20201;-77
2021/04/08 04:56:37;;;;;;;10.97;4.33;;;3.50;99.90;;;;;;5075175;28;20300;-77
2021/04/08 04:59:03;;;;;;;8.70;4.60;;;3.50;99.90;;;;;;5075210;28;20606;-77
2021/04/08 05:01:29;;;;;;;9.33;4.47;;;3.50;99.90;;;;;;5074591;28;20220;-77
2021/04/08 05:03:56;;;;;;;15.30;4.70;;;3.40;99.90;;;;;;5074973;28;20200;-78
2021/04/08 05:06:23;;;;;;;15.67;5.30;;;3.40;99.90;;;;;;5065923;28;20275;-78
2021/04/08 05:08:49;;;;;;;10.63;5.17;;;3.40;99.90;;;;;;5071182;28;20193;-78
2021/04/08 05:11:17;;;;;;;14.67;4.80;;;3.40;99.90;;;;;;5060554;28;20208;-77
2021/04/08 05:13:43;;;;;;;12.10;5.67;;;3.40;99.90;;;;;;5074687;28;20205;-78
2021/04/08 05:16:09;;;;;;;15.20;5.43;;;3.40;99.90;;;;;;5074464;28;20196;-78
2021/04/08 05:18:36;;;;;;;9.53;4.60;;;3.60;99.90;;;;;;5067891;28;20197;-78
2021/04/08 05:21:02;;;;;;;9.60;5.50;;;3.60;99.90;;;;;;5061326;28;20663;-77
2021/04/08 05:23:28;;;;;;;14.17;5.33;;;3.70;99.90;;;;;;5085785;28;20661;-77
2021/04/08 05:25:55;;;;;;;11.10;5.03;;;3.70;99.90;;;;;;5072462;28;20279;-77
2021/04/08 05:28:22;;;;;;;12.80;4.77;;;3.80;99.90;;;;;;5093555;28;20195;-77
2021/04/08 05:30:48;;;;;;;17.50;5.23;;;3.90;99.90;;;;;;5069937;28;20226;-78
2021/04/08 05:33:14;;;;;;;11.23;4.83;;;3.90;99.90;;;;;;5063586;28;20549;-78
2021/04/08 05:35:41;;;;;;;11.07;4.90;;;4.00;99.90;;;;;;5073806;28;20662;-78
2021/04/08 05:38:07;;;;;;;15.07;5.57;;;4.00;99.90;;;;;;5059665;28;20200;-78
2021/04/08 05:40:33;;;;;;;12.20;4.70;;;4.00;99.90;;;;;;5053956;28;20199;-77
2021/04/08 05:43:00;;;;;;;10.20;5.00;;;4.00;99.90;;;;;;5054119;28;20232;-77
2021/04/08 05:45:28;;;;;;;16.43;5.20;;;4.00;99.90;;;;;;5055618;28;20205;-77
2021/04/08 05:47:54;;;;;;;12.97;4.77;;;4.00;99.90;;;;;;5066653;28;20206;-78
2021/04/08 05:50:21;;;;;;;9.53;4.70;;;4.10;99.90;;;;;;5061082;28;20238;-78
2021/04/08 05:52:47;;;;;;;13.77;4.93;;;4.10;99.90;;;;;;5081401;28;20194;-78
2021/04/08 05:55:14;;;;;;;11.97;4.90;;;4.10;99.90;;;;;;5067972;28;20200;-75
2021/04/08 05:57:40;;;;;;;13.33;5.10;;;4.10;99.90;;;;;;5067838;28;20215;-78
2021/04/08 06:00:10;;;;;;;13.80;4.90;;;4.20;99.90;;;;;;5053232;28;20204;-78
2021/04/08 06:02:38;;;;;;;13.07;4.83;;;4.20;99.90;;;;;;5054501;28;20222;-79
2021/04/08 06:05:06;;;;;;;14.03;5.40;;;4.20;99.90;;;;;;5053122;28;20286;-78
2021/04/08 06:07:32;;;;;;;14.50;5.20;;;4.30;99.90;;;;;;5065534;28;20206;-78
2021/04/08 06:09:59;;;;;;;13.30;5.83;;;4.40;99.90;;;;;;5071948;28;20231;-78
2021/04/08 06:12:26;;;;;;;15.70;5.77;;;4.50;99.90;;;;;;5053442;28;20204;-76
2021/04/08 06:14:52;;;;;;;11.77;5.53;;;4.70;99.90;;;;;;5053609;28;20199;-76
2021/04/08 06:17:18;;;;;;;14.70;5.37;;;4.90;99.90;;;;;;5071140;28;20284;-79
2021/04/08 06:19:46;;;;;;;11.07;5.00;;;5.10;99.90;;;;;;5061301;28;20292;-77
2021/04/08 06:22:13;;;;;;;16.27;5.37;;;5.20;99.90;;;;;;5067343;28;20283;-78
2021/04/08 06:24:40;;;;;;;10.87;5.23;;;5.50;99.90;;;;;;5072988;28;20192;-78
2021/04/08 06:27:07;;;;;;;13.00;5.27;;;5.60;99.90;;;;;;5070934;28;20222;-78
2021/04/08 06:29:34;;;;;;;13.00;5.77;;;5.80;99.90;;;;;;5072963;28;20571;-78
2021/04/08 06:32:01;;;;;;;16.33;5.33;;;6.00;99.90;;;;;;5059492;28;20227;-78
2021/04/08 06:34:28;;;;;;;13.17;5.77;;;6.10;99.90;;;;;;5064360;28;20209;-78
2021/04/08 06:36:58;;;;;;;12.07;5.20;;;6.20;99.90;;;;;;5052616;28;20628;-78
2021/04/08 06:39:26;;;;;;;11.40;5.43;;;6.30;99.90;;;;;;5053262;28;20225;-78
2021/04/08 06:41:53;;;;;;;11.43;5.43;;;6.40;99.90;;;;;;5060922;28;20209;-78
2021/04/08 06:44:23;;;;;;;10.93;5.13;;;6.50;99.90;;;;;;5085339;28;20219;-78
2021/04/08 06:46:58;;;;;;;13.03;5.43;;;6.60;99.90;;;;;;5073589;28;20205;-78
2021/04/08 06:49:32;;;;;;;15.27;5.90;;;6.70;99.90;;;;;;5063478;28;20263;-77
2021/04/08 06:52:01;;;;;;;10.83;5.53;;;7.00;99.90;;;;;;5053011;28;20204;-78
2021/04/08 06:54:28;;;;;;;9.67;5.20;;;7.00;99.90;;;;;;5064702;28;20294;-78
2021/04/08 06:56:56;;;;;;;12.53;5.57;;;7.00;99.90;;;;;;5072546;28;20215;-78
2021/04/08 06:59:22;;;;;;;11.67;5.73;;;7.20;99.90;;;;;;5067404;28;20697;-77
2021/04/08 07:01:49;;;;;;;13.77;5.70;;;7.30;99.90;;;;;;5064550;28;20666;-78
2021/04/08 07:04:18;;;;;;;12.30;5.40;;;7.40;99.90;;;;;;5058167;28;20680;-78
2021/04/08 07:06:45;;;;;;;12.33;5.40;;;7.30;99.90;;;;;;5065184;28;20592;-78
2021/04/08 07:09:13;;;;;;;15.10;5.07;;;7.40;99.90;;;;;;5058888;28;20231;-78
2021/04/08 07:11:40;;;;;;;15.57;6.03;;;7.50;99.90;;;;;;5068721;28;20219;-78
2021/04/08 07:14:08;;;;;;;14.10;5.57;;;7.50;99.90;;;;;;5068667;28;20208;-77
2021/04/08 07:16:35;;;;;;;12.43;5.63;;;7.60;99.90;;;;;;5066408;28;20296;-77
2021/04/08 07:19:04;;;;;;;14.47;6.13;;;7.70;99.90;;;;;;5071109;28;20196;-77
2021/04/08 07:21:32;;;;;;;15.43;5.13;;;7.90;99.90;;;;;;5062130;28;20288;-76
2021/04/08 07:24:09;;;;;;;16.10;6.00;;;8.00;99.90;;;;;;5072673;28;20704;-77
2021/04/08 07:27:03;;;;;;;9.53;5.20;;;8.10;99.90;;;;;;5071577;28;20220;-77
2021/04/08 07:29:48;;;;;;;12.33;5.37;;;8.30;99.90;;;;;;5072430;28;20217;-76
2021/04/08 07:32:16;;;;;;;9.77;5.33;;;8.30;99.90;;;;;;5052440;28;20210;-77
2021/04/08 07:34:45;;;;;;;19.27;5.90;;;8.40;99.90;;;;;;5072167;28;20666;-78
2021/04/08 07:37:13;;;;;;;11.17;5.37;;;8.30;99.90;;;;;;5070970;28;20697;-77
2021/04/08 07:39:41;;;;;;;18.13;7.37;;;8.30;99.90;;;;;;5071847;28;20296;-77
2021/04/08 07:42:11;;;;;;;13.80;6.27;;;8.40;99.90;;;;;;5071748;28;20204;-77
2021/04/08 07:44:46;;;;;;;17.37;6.20;;;8.50;99.90;;;;;;5072005;28;20212;-78
2021/04/08 07:47:16;;;;;;;12.47;5.13;;;8.60;99.90;;;;;;5072763;28;20196;-77
2021/04/08 07:49:43;;;;;;;15.80;5.77;;;8.60;99.90;;;;;;5075258;28;20271;-77
2021/04/08 07:52:25;;;;;;;14.10;6.13;;;8.80;99.90;;;;;;5076267;28;20208;-77
2021/04/08 07:55:04;;;;;;;27.57;5.47;;;9.10;99.90;;;;;;5061345;28;20251;-77
2021/04/08 07:57:32;;;;;;;14.30;5.03;;;9.30;99.90;;;;;;5071857;28;20205;-77
2021/04/08 08:00:17;;;;;;;15.10;5.50;;;9.50;99.90;;;;;;5066942;28;20200;-77
2021/04/08 08:02:44;;;;;;;11.70;5.20;;;9.80;99.90;;;;;;5069129;28;20253;-77
2021/04/08 08:05:23;;;;;;;11.77;4.97;;;10.00;99.90;;;;;;5055361;28;20199;-77
2021/04/08 08:07:51;;;;;;;8.27;5.20;;;10.00;99.90;;;;;;5055628;28;20961;-77
2021/04/08 08:10:26;;;;;;;12.23;5.00;;;10.20;99.90;;;;;;5055418;28;20219;-76
2021/04/08 08:12:54;;;;;;;13.10;5.37;;;10.10;99.90;;;;;;5061946;28;20201;-76
2021/04/08 08:15:23;;;;;;;16.13;5.40;;;10.40;99.90;;;;;;5073274;28;20206;-77
2021/04/08 08:17:51;;;;;;;6.97;4.37;;;10.40;99.90;;;;;;5075743;28;20201;-77
2021/04/08 08:20:18;;;;;;;13.20;5.60;;;10.50;99.90;;;;;;5075907;28;20306;-77
2021/04/08 08:22:46;;;;;;;14.83;4.90;;;10.60;99.90;;;;;;5072542;28;20284;-77
2021/04/08 08:25:22;;;;;;;12.50;5.43;;;10.80;99.90;;;;;;5071792;28;20289;-77
2021/04/08 08:27:52;;;;;;;11.40;4.50;;;10.90;99.90;;;;;;5060594;28;20294;-77
2021/04/08 08:30:21;;;;;;;12.63;4.60;;;10.80;99.90;;;;;;5074412;28;20229;-77
2021/04/08 08:33:15;;;;;;;16.87;4.63;;;10.80;99.90;;;;;;5068822;28;20202;-77
2021/04/08 08:35:42;;;;;;;14.80;4.53;;;10.70;99.90;;;;;;5064892;28;20209;-76
2021/04/08 08:38:15;;;;;;;11.57;4.33;;;10.70;99.90;;;;;;5069926;28;20281;-77
2021/04/08 08:40:42;;;;;;;10.90;4.80;;;10.70;99.90;;;;;;5073259;28;20289;-77
2021/04/08 08:43:10;;;;;;;13.97;5.20;;;10.70;99.90;;;;;;5073884;28;20281;-77
2021/04/08 08:45:37;;;;;;;15.87;5.33;;;10.90;99.90;;;;;;5074666;28;20589;-77
2021/04/08 08:48:09;;;;;;;13.53;4.90;;;11.10;99.90;;;;;;5075322;28;20197;-77
2021/04/08 08:50:37;;;;;;;12.23;5.10;;;11.20;99.90;;;;;;5073507;28;20222;-77
2021/04/08 08:53:04;;;;;;;11.43;5.07;;;11.30;99.90;;;;;;5073663;28;20275;-76
2021/04/08 08:55:32;;;;;;;16.27;5.03;;;11.50;99.90;;;;;;5067552;28;20289;-76
2021/04/08 08:57:59;;;;;;;11.83;5.00;;;11.50;99.90;;;;;;5073730;28;20286;-76
2021/04/08 09:00:27;;;;;;;9.13;4.63;;;11.60;99.90;;;;;;5070292;28;20198;-77
2021/04/08 09:02:56;;;;;;;8.73;4.90;;;11.90;99.90;;;;;;5070173;28;20202;-76
2021/04/08 09:05:24;;;;;;;11.10;5.10;;;11.80;99.90;;;;;;5072266;28;20200;-76
2021/04/08 09:07:52;;;;;;;14.00;4.93;;;11.90;99.90;;;;;;5071167;28;20206;-77
2021/04/08 09:10:25;;;;;;;13.33;5.13;;;11.90;99.90;;;;;;5071208;28;20337;-76
2021/04/08 09:12:52;;;;;;;12.87;5.47;;;12.00;99.90;;;;;;5074645;28;20251;-76
2021/04/08 09:15:18;;;;;;;10.27;4.90;;;12.20;99.90;;;;;;5074440;28;20293;-77
2021/04/08 09:17:47;;;;;;;12.60;5.07;;;12.40;99.90;;;;;;5074734;28;20202;-76
2021/04/08 09:20:16;;;;;;;7.23;4.60;;;12.70;99.90;;;;;;5074700;28;20225;-77
2021/04/08 09:22:55;;;;;;;15.90;5.70;;;12.80;99.90;;;;;;5061653;28;20248;-77
2021/04/08 09:25:28;;;;;;;7.57;3.97;;;13.20;99.90;;;;;;5069819;28;20286;-76
2021/04/08 09:27:58;;;;;;;12.43;4.97;;;13.60;99.90;;;;;;5074161;28;20202;-77
2021/04/08 09:30:44;;;;;;;9.17;5.53;;;13.60;99.90;;;;;;5054246;28;20748;-76
2021/04/08 09:33:12;;;;;;;11.20;4.57;;;13.40;99.90;;;;;;5071640;28;20231;-76
2021/04/08 09:35:39;;;;;;;9.77;4.70;;;13.30;99.90;;;;;;5054044;28;20246;-76
2021/04/08 09:38:16;;;;;;;9.40;4.40;;;13.10;99.90;;;;;;5054306;28;20204;-76
2021/04/08 09:41:03;;;;;;;7.47;4.43;;;13.20;99.90;;;;;;5054015;28;20268;-76
2021/04/08 09:43:31;;;;;;;8.63;4.20;;;13.20;99.90;;;;;;5054050;28;20659;-76
2021/04/08 09:46:09;;;;;;;6.90;4.73;;;13.50;99.90;;;;;;5053906;28;20212;-76
2021/04/08 09:48:47;;;;;;;8.27;4.40;;;13.50;99.90;;;;;;5056668;28;20249;-77
2021/04/08 09:51:27;;;;;;;7.90;4.10;;;13.20;99.90;;;;;;5059043;28;20218;-76
2021/04/08 09:53:59;;;;;;;6.87;4.37;;;12.80;99.90;;;;;;5074169;28;20593;-76
2021/04/08 09:56:51;;;;;;;8.37;4.00;;;12.40;99.90;;;;;;5064783;28;20242;-76
2021/04/08 09:59:19;;;;;;;9.10;5.00;;;12.30;99.90;;;;;;5066354;28;20721;-76
2021/04/08 10:01:45;;;;;;;7.20;4.60;;;12.30;99.90;;;;;;5068654;28;20675;-76
2021/04/08 10:04:18;;;;;;;8.80;4.50;;;12.50;99.90;;;;;;5070178;28;20536;-76
2021/04/08 10:06:47;;;;;;;9.23;4.20;;;12.60;99.90;;;;;;5053191;28;20301;-75
2021/04/08 10:09:15;;;;;;;7.27;4.20;;;12.20;99.90;;;;;;5063688;28;20198;-76
2021/04/08 10:11:43;;;;;;;7.90;4.40;;;11.90;99.90;;;;;;5063000;28;20203;-75
2021/04/08 10:14:22;;;;;;;10.37;4.23;;;11.70;99.90;;;;;;5069452;28;20694;-76
2021/04/08 10:17:08;;;;;;;8.43;4.13;;;11.50;99.90;;;;;;5067739;28;20658;-76
2021/04/08 10:19:37;;;;;;;6.77;4.23;;;11.40;99.90;;;;;;5072994;28;20190;-76
2021/04/08 10:22:11;;;;;;;6.27;4.60;;;11.30;99.90;;;;;;5068311;28;20206;-75
2021/04/08 10:24:40;;;;;;;6.00;4.17;;;11.30;99.90;;;;;;5068440;28;20198;-75
2021/04/08 10:27:15;;;;;;;12.63;4.37;;;12.30;99.90;;;;;;5070861;28;20242;-75
2021/04/08 10:29:42;;;;;;;8.03;4.67;;;13.30;99.90;;;;;;5067071;28;20639;-75
2021/04/08 10:32:09;;;;;;;6.83;4.60;;;13.50;99.90;;;;;;5059524;28;20228;-75
2021/04/08 10:34:38;;;;;;;7.23;4.40;;;13.50;99.90;;;;;;5071853;28;20226;-75
2021/04/08 10:37:05;;;;;;;9.73;5.00;;;13.80;99.90;;;;;;5068541;28;20281;-75
2021/04/08 10:39:34;;;;;;;8.50;4.13;;;13.80;99.90;;;;;;5069626;28;20196;-75
2021/04/08 10:42:04;;;;;;;9.83;4.73;;;14.10;99.90;;;;;;5073153;28;20196;-75
2021/04/08 10:44:32;;;;;;;7.93;4.17;;;14.20;99.90;;;;;;5068105;28;20221;-78
2021/04/08 10:47:02;;;;;;;9.57;4.57;;;14.30;99.90;;;;;;5072891;28;20282;-77
2021/04/08 10:49:30;;;;;;;11.57;4.97;;;14.30;99.90;;;;;;5073438;28;20252;-78
2021/04/08 10:51:57;;;;;;;8.07;4.60;;;14.20;99.90;;;;;;5072952;28;20726;-78
2021/04/08 10:54:28;;;;;;;8.57;4.90;;;14.10;99.90;;;;;;5071338;28;20202;-78
2021/04/08 10:56:56;;;;;;;7.37;4.57;;;14.10;99.90;;;;;;5060503;28;20203;-77
2021/04/08 10:59:24;;;;;;;8.03;4.70;;;13.60;99.90;;;;;;5070556;28;20282;-78
2021/04/08 11:01:52;;;;;;;6.33;4.60;;;13.60;99.90;;;;;;5069877;28;20538;-78
2021/04/08 11:04:19;;;;;;;8.13;5.10;;;13.70;99.90;;;;;;5068743;28;20290;-78
2021/04/08 11:06:46;;;;;;;11.30;5.40;;;13.50;99.90;;;;;;5070204;28;20286;-78
2021/04/08 11:09:12;;;;;;;9.70;5.20;;;13.20;99.90;;;;;;5065994;28;20321;-77
2021/04/08 11:11:39;;;;;;;9.10;5.17;;;13.30;99.90;;;;;;5075565;28;20225;-78
2021/04/08 11:14:06;;;;;;;11.80;5.13;;;13.30;99.90;;;;;;5058585;28;20618;-78
2021/04/08 11:16:32;;;;;;;10.73;5.10;;;13.40;99.90;;;;;;5065854;28;20690;-78
2021/04/08 11:19:02;;;;;;;10.10;5.30;;;13.30;99.90;;;;;;5059009;28;20276;-77
2021/04/08 11:21:28;;;;;;;9.17;5.00;;;13.40;99.90;;;;;;5053809;28;20234;-78
2021/04/08 11:23:56;;;;;;;7.53;4.80;;;13.30;99.90;;;;;;5057893;28;20198;-80
2021/04/08 11:26:22;;;;;;;10.83;5.60;;;13.70;99.90;;;;;;5065827;28;20203;-79
2021/04/08 11:28:54;;;;;;;7.03;5.53;;;13.60;99.90;;;;;;5066312;28;20272;-79
2021/04/08 11:31:22;;;;;;;10.67;5.20;;;13.40;99.90;;;;;;5081016;28;20314;-79
2021/04/08 11:33:55;;;;;;;11.27;5.80;;;13.40;99.90;;;;;;5064017;28;20200;-79
2021/04/08 11:36:23;;;;;;;11.40;5.83;;;13.50;99.90;;;;;;5071335;28;20653;-77
2021/04/08 11:38:50;;;;;;;7.87;6.10;;;13.60;99.90;;;;;;5060926;28;20200;-78
2021/04/08 11:41:16;;;;;;;11.00;5.77;;;13.60;99.90;;;;;;5057191;28;20199;-77
2021/04/08 11:43:48;;;;;;;8.80;5.90;;;14.00;99.90;;;;;;5070477;28;20200;-77
2021/04/08 11:46:29;;;;;;;8.67;5.60;;;14.30;99.90;;;;;;5076082;28;20573;-78
2021/04/08 11:48:57;;;;;;;10.00;5.80;;;14.60;99.90;;;;;;5066492;28;20191;-78
2021/04/08 11:51:25;;;;;;;10.03;5.60;;;14.90;99.90;;;;;;5071197;28;20230;-78
2021/04/08 11:53:53;;;;;;;9.63;5.70;;;15.20;99.90;;;;;;5060570;28;20291;-78
2021/04/08 11:56:31;;;;;;;8.80;5.90;;;16.00;99.90;;;;;;5068246;28;20199;-77
2021/04/08 11:59:12;;;;;;;10.60;6.13;;;15.50;99.90;;;;;;5075538;28;20214;-78
2021/04/08 12:01:42;;;;;;;11.63;6.20;;;15.00;99.90;;;;;;5066841;28;20295;-78
2021/04/08 12:04:14;;;;;;;10.10;6.33;;;15.30;99.90;;;;;;5056752;28;20638;-77
2021/04/08 12:06:42;;;;;;;10.63;6.13;;;14.80;99.90;;;;;;5056538;28;20218;-78
2021/04/08 12:09:09;;;;;;;9.83;6.13;;;15.00;99.90;;;;;;5055911;28;20196;-78
2021/04/08 12:11:49;;;;;;;9.57;6.47;;;14.30;99.90;;;;;;5075793;28;20227;-78
2021/04/08 12:14:16;;;;;;;11.13;6.43;;;13.80;99.90;;;;;;5076400;28;20227;-78
2021/04/08 12:16:44;;;;;;;13.90;7.50;;;13.90;99.90;;;;;;5075628;28;20195;-78
2021/04/08 12:19:22;;;;;;;10.37;6.13;;;14.00;99.90;;;;;;5076726;28;20199;-78
2021/04/08 12:22:01;;;;;;;9.30;6.40;;;13.90;99.90;;;;;;5076170;28;20219;-79
2021/04/08 12:24:27;;;;;;;12.13;6.50;;;14.10;99.90;;;;;;5056422;28;20394;-78
2021/04/08 12:26:54;;;;;;;13.23;6.00;;;14.40;99.90;;;;;;5055900;28;20744;-78
2021/04/08 12:29:21;;;;;;;9.63;5.93;;;14.50;99.90;;;;;;5067558;28;20680;-77
2021/04/08 12:31:54;;;;;;;9.73;6.17;;;14.30;99.90;;;;;;5055899;28;20723;-78
2021/04/08 12:34:21;;;;;;;10.57;6.23;;;14.30;99.90;;;;;;5062811;28;20668;-78
2021/04/08 12:36:47;;;;;;;7.97;5.57;;;14.40;99.90;;;;;;5065136;28;20299;-77
2021/04/08 12:39:14;;;;;;;10.60;6.43;;;14.30;99.90;;;;;;5064391;28;20210;-78
2021/04/08 12:41:40;;;;;;;13.30;6.17;;;14.20;99.90;;;;;;5068360;28;20220;-78
2021/04/08 12:44:09;;;;;;;8.53;5.93;;;14.20;99.90;;;;;;5076198;28;20244;-78
2021/04/08 12:46:38;;;;;;;9.73;6.50;;;14.00;99.90;;;;;;5086759;28;20196;-78
2021/04/08 12:49:05;;;;;;;11.30;6.90;;;13.90;99.90;;;;;;5074776;28;20194;-78
2021/04/08 12:51:31;;;;;;;16.03;7.37;;;13.90;99.90;;;;;;5074749;28;20219;-78
2021/04/08 12:53:58;;;;;;;9.93;6.67;;;14.00;99.90;;;;;;5075113;28;20731;-78
2021/04/08 12:56:24;;;;;;;13.33;6.63;;;13.90;99.90;;;;;;5075223;28;20687;-77
2021/04/08 12:58:52;;;;;;;10.93;6.30;;;13.60;99.90;;;;;;5075140;28;20238;-78